Time;durP1;ratioP1;P1;durP2;ratioP2;P2;SDS_P1;SDS_P2;PMS_P1;PMS_P2;Temp;Humidity;BMP_temperature;BMP_pressure;BME280_temperature;BME280_humidity;BME280_pressure;Samples;Min_cycle;Max_cycle;Signal;HPM_P1;HPM_P2
2021/11/15 00:01:51;;;;;;;16.08;6.97;;;9.30;99.90;;;;;;5035307;28;20021;-75
2021/11/15 00:04:17;;;;;;;16.75;6.22;;;9.30;99.90;;;;;;5035185;28;20017;-76
2021/11/15 00:06:43;;;;;;;19.38;7.90;;;9.30;99.90;;;;;;5035081;28;20025;-76
2021/11/15 00:09:09;;;;;;;20.10;7.10;;;9.30;99.90;;;;;;5034883;28;20017;-75
2021/11/15 00:11:35;;;;;;;16.38;6.72;;;9.30;99.90;;;;;;5052848;28;20029;-76
2021/11/15 00:14:01;;;;;;;20.20;6.93;;;9.30;99.90;;;;;;5053098;28;20452;-79
2021/11/15 00:16:27;;;;;;;16.73;6.85;;;9.30;99.90;;;;;;5052974;28;20359;-78
2021/11/15 00:18:53;;;;;;;15.70;6.75;;;9.30;99.90;;;;;;5053181;28;20079;-76
2021/11/15 00:21:19;;;;;;;22.00;7.55;;;9.30;99.90;;;;;;5052714;28;20028;-77
2021/11/15 00:23:44;;;;;;;19.15;6.07;;;9.30;99.90;;;;;;5034767;28;20029;-77
2021/11/15 00:26:10;;;;;;;18.38;6.80;;;9.20;99.90;;;;;;5052656;28;20056;-77
2021/11/15 00:28:36;;;;;;;16.10;6.50;;;9.20;99.90;;;;;;5055547;28;20104;-77
2021/11/15 00:31:01;;;;;;;16.25;5.72;;;9.20;99.90;;;;;;5055891;28;20035;-76
2021/11/15 00:33:27;;;;;;;15.63;6.43;;;9.20;99.90;;;;;;5056042;28;20033;-77
2021/11/15 00:35:52;;;;;;;15.63;6.50;;;9.20;99.90;;;;;;5038189;28;20033;-75
2021/11/15 00:38:19;;;;;;;14.50;6.28;;;9.20;99.90;;;;;;5038128;28;20017;-75
2021/11/15 00:40:45;;;;;;;17.50;6.90;;;9.20;99.90;;;;;;5056089;28;20032;-75
2021/11/15 00:43:11;;;;;;;15.48;6.90;;;9.20;99.90;;;;;;5065804;28;20032;-75
2021/11/15 00:45:38;;;;;;;16.05;6.07;;;9.20;99.90;;;;;;5076199;28;20028;-76
2021/11/15 00:48:04;;;;;;;12.80;5.43;;;9.20;99.90;;;;;;5076237;28;20104;-75
2021/11/15 00:50:30;;;;;;;13.45;5.50;;;9.20;99.90;;;;;;5058381;28;20071;-75
2021/11/15 00:52:57;;;;;;;16.33;6.13;;;9.20;99.90;;;;;;5058017;28;20476;-75
2021/11/15 00:55:22;;;;;;;18.08;6.18;;;9.20;99.90;;;;;;5076122;28;20029;-76
2021/11/15 00:57:48;;;;;;;13.63;5.65;;;9.20;99.90;;;;;;5076049;28;20017;-76
2021/11/15 01:00:18;;;;;;;14.20;5.32;;;9.20;99.90;;;;;;5075947;28;20024;-77
2021/11/15 01:02:44;;;;;;;13.65;5.00;;;9.20;99.90;;;;;;5076183;28;20535;-76
2021/11/15 01:05:10;;;;;;;11.07;5.03;;;9.10;99.90;;;;;;5076062;28;20050;-77
2021/11/15 01:07:36;;;;;;;13.88;5.18;;;9.10;99.90;;;;;;5076201;28;20107;-77
2021/11/15 01:10:04;;;;;;;12.70;5.28;;;9.10;99.90;;;;;;5075539;28;20056;-77
2021/11/15 01:12:31;;;;;;;15.52;5.57;;;9.10;99.90;;;;;;5072319;28;20013;-77
2021/11/15 01:14:56;;;;;;;12.98;5.03;;;9.10;99.90;;;;;;5055301;28;20039;-77
2021/11/15 01:17:22;;;;;;;20.58;7.00;;;9.10;99.90;;;;;;5047936;28;20021;-77
2021/11/15 01:19:48;;;;;;;14.55;6.57;;;9.10;99.90;;;;;;5075475;28;20017;-77
2021/11/15 01:22:13;;;;;;;21.13;7.72;;;9.10;99.90;;;;;;5076261;28;20024;-77
2021/11/15 01:24:39;;;;;;;17.92;6.10;;;9.10;99.90;;;;;;5075418;28;20056;-76
2021/11/15 01:27:05;;;;;;;15.15;6.05;;;9.10;99.90;;;;;;5074974;28;20064;-75
2021/11/15 01:29:30;;;;;;;15.70;4.97;;;9.10;99.90;;;;;;5057294;28;20021;-75
2021/11/15 01:31:57;;;;;;;13.18;4.93;;;9.10;99.90;;;;;;5075318;28;20035;-75
2021/11/15 01:34:25;;;;;;;11.63;4.80;;;9.10;99.90;;;;;;5075087;28;20048;-75
2021/11/15 01:36:51;;;;;;;11.32;5.07;;;9.10;99.90;;;;;;5075112;28;20070;-75
2021/11/15 01:39:16;;;;;;;12.13;5.00;;;9.10;99.90;;;;;;5056227;28;20469;-75
2021/11/15 01:41:42;;;;;;;13.45;5.70;;;9.10;99.90;;;;;;5057073;28;20021;-75
2021/11/15 01:44:07;;;;;;;11.60;4.90;;;9.00;99.90;;;;;;5075194;28;20021;-75
2021/11/15 01:46:33;;;;;;;12.73;5.03;;;9.00;99.90;;;;;;5074767;28;20025;-75
2021/11/15 01:48:59;;;;;;;9.38;4.53;;;9.00;99.90;;;;;;5074699;28;20027;-76
2021/11/15 01:51:24;;;;;;;13.32;5.32;;;8.90;99.90;;;;;;5074704;28;20043;-76
2021/11/15 01:53:50;;;;;;;11.93;4.93;;;8.90;99.90;;;;;;5055155;28;20025;-76
2021/11/15 01:56:16;;;;;;;11.50;4.78;;;8.90;99.90;;;;;;5054706;28;20104;-76
2021/11/15 01:58:42;;;;;;;11.18;4.13;;;8.90;99.90;;;;;;5054468;28;20025;-76
2021/11/15 02:01:08;;;;;;;11.68;5.10;;;8.90;99.90;;;;;;5055262;28;20024;-76
2021/11/15 02:03:34;;;;;;;12.27;4.72;;;8.90;99.90;;;;;;5054535;28;20029;-76
2021/11/15 02:06:01;;;;;;;14.00;5.13;;;8.90;99.90;;;;;;5054877;28;20074;-76
2021/11/15 02:08:27;;;;;;;12.57;5.28;;;8.90;99.90;;;;;;5055100;28;20071;-76
2021/11/15 02:10:53;;;;;;;13.40;4.80;;;8.90;99.90;;;;;;5054669;28;20398;-77
2021/11/15 02:13:20;;;;;;;10.05;4.25;;;8.80;99.90;;;;;;5054957;28;20078;-76
2021/11/15 02:15:47;;;;;;;12.73;4.50;;;8.80;99.90;;;;;;5054279;28;20021;-76
2021/11/15 02:18:13;;;;;;;11.00;4.90;;;8.80;99.90;;;;;;5036743;28;20025;-76
2021/11/15 02:20:49;;;;;;;12.23;4.53;;;8.80;99.90;;;;;;5054786;28;20386;-76
2021/11/15 02:23:20;;;;;;;16.90;6.60;;;8.90;99.90;;;;;;5036574;28;20071;-76
2021/11/15 02:25:48;;;;;;;15.10;6.18;;;8.90;99.90;;;;;;5054588;28;20040;-76
2021/11/15 02:28:14;;;;;;;17.48;6.97;;;8.90;99.90;;;;;;5036243;28;20028;-76
2021/11/15 02:30:40;;;;;;;15.65;5.95;;;8.90;99.90;;;;;;5053896;28;20029;-76
2021/11/15 02:33:06;;;;;;;16.33;6.20;;;8.90;99.90;;;;;;5035957;28;20055;-76
2021/11/15 02:35:32;;;;;;;17.42;6.15;;;8.90;99.90;;;;;;5035877;28;20017;-76
2021/11/15 02:37:58;;;;;;;16.92;6.63;;;8.80;99.90;;;;;;5053874;28;20021;-76
2021/11/15 02:40:25;;;;;;;14.65;5.80;;;8.80;99.90;;;;;;5035818;28;20029;-76
2021/11/15 02:42:51;;;;;;;15.70;5.93;;;8.70;99.90;;;;;;5054265;28;20028;-76
2021/11/15 02:45:20;;;;;;;19.25;5.82;;;8.70;99.90;;;;;;5053726;28;20025;-76
2021/11/15 02:47:45;;;;;;;16.17;5.53;;;8.70;99.90;;;;;;5036011;28;20036;-76
2021/11/15 02:50:14;;;;;;;14.57;5.28;;;8.70;99.90;;;;;;5053473;28;20474;-76
2021/11/15 02:52:44;;;;;;;16.90;5.43;;;8.70;99.90;;;;;;5054122;28;20025;-76
2021/11/15 02:55:11;;;;;;;16.05;6.13;;;8.70;99.90;;;;;;5035701;28;20021;-76
2021/11/15 02:57:36;;;;;;;15.23;5.55;;;8.70;99.90;;;;;;5054421;28;20090;-76
2021/11/15 03:00:05;;;;;;;13.50;4.53;;;8.70;99.90;;;;;;5053513;28;20013;-76
2021/11/15 03:02:33;;;;;;;16.52;5.75;;;8.70;99.90;;;;;;5053437;28;20032;-76
2021/11/15 03:04:59;;;;;;;15.10;5.22;;;8.70;99.90;;;;;;5053496;28;20482;-77
2021/11/15 03:07:24;;;;;;;12.75;5.35;;;8.70;99.90;;;;;;5058063;28;20020;-77
2021/11/15 03:09:50;;;;;;;15.43;5.47;;;8.60;99.90;;;;;;5073432;28;20024;-77
2021/11/15 03:12:16;;;;;;;13.60;5.07;;;8.70;99.90;;;;;;5073375;28;20407;-77
2021/11/15 03:14:41;;;;;;;14.38;5.00;;;8.70;99.90;;;;;;5073713;28;20500;-77
2021/11/15 03:17:08;;;;;;;11.98;5.20;;;8.60;99.90;;;;;;5073290;28;20474;-77
2021/11/15 03:19:33;;;;;;;16.13;5.07;;;8.70;99.90;;;;;;5073045;28;20044;-76
2021/11/15 03:21:59;;;;;;;11.90;4.78;;;8.70;99.90;;;;;;5073291;28;20029;-77
2021/11/15 03:24:24;;;;;;;13.38;4.45;;;8.60;99.90;;;;;;5073198;28;20036;-77
2021/11/15 03:26:50;;;;;;;11.77;3.60;;;8.60;99.90;;;;;;5073304;28;20048;-76
2021/11/15 03:29:15;;;;;;;11.15;4.10;;;8.60;99.90;;;;;;5073133;28;20043;-76
2021/11/15 03:31:41;;;;;;;12.93;4.57;;;8.60;99.90;;;;;;5073751;28;20021;-77
2021/11/15 03:34:12;;;;;;;12.32;4.82;;;8.60;99.90;;;;;;5073184;28;20024;-77
2021/11/15 03:36:40;;;;;;;15.93;4.90;;;8.60;99.90;;;;;;5073083;28;20123;-77
2021/11/15 03:39:07;;;;;;;13.57;4.95;;;8.50;99.90;;;;;;5073470;28;20021;-77
2021/11/15 03:41:35;;;;;;;12.90;4.70;;;8.50;99.90;;;;;;5055189;28;20106;-77
2021/11/15 03:44:02;;;;;;;12.37;6.23;;;8.50;99.90;;;;;;5053345;28;20016;-77
2021/11/15 03:46:27;;;;;;;9.05;3.47;;;8.50;99.90;;;;;;5053012;28;20025;-77
2021/11/15 03:48:53;;;;;;;11.95;5.05;;;8.50;99.90;;;;;;5053319;28;20029;-77
2021/11/15 03:51:19;;;;;;;14.23;5.28;;;8.60;99.90;;;;;;5069295;28;20037;-77
2021/11/15 03:53:46;;;;;;;12.48;5.07;;;8.60;99.90;;;;;;5055442;28;20032;-77
2021/11/15 03:56:14;;;;;;;12.23;4.72;;;8.60;99.90;;;;;;5055681;28;20074;-77
2021/11/15 03:58:42;;;;;;;11.57;4.65;;;8.50;99.90;;;;;;5073341;28;20025;-77
2021/11/15 04:01:08;;;;;;;9.90;4.15;;;8.50;99.90;;;;;;5055074;28;20023;-77
2021/11/15 04:03:36;;;;;;;14.48;4.95;;;8.50;99.90;;;;;;5075096;28;20099;-77
2021/11/15 04:06:11;;;;;;;12.38;4.88;;;8.50;99.90;;;;;;5056885;28;20023;-77
2021/11/15 04:08:37;;;;;;;9.93;4.07;;;8.50;99.90;;;;;;5058019;28;20024;-77
2021/11/15 04:11:05;;;;;;;14.55;4.78;;;8.50;99.90;;;;;;5056807;28;20047;-77
2021/11/15 04:13:34;;;;;;;12.98;4.90;;;8.50;99.90;;;;;;5039292;28;20021;-77
2021/11/15 04:16:03;;;;;;;15.32;5.05;;;8.50;99.90;;;;;;5039285;28;20033;-77
2021/11/15 04:18:31;;;;;;;14.90;6.15;;;8.50;99.90;;;;;;5057181;28;20044;-77
2021/11/15 04:20:58;;;;;;;10.88;4.70;;;8.50;99.90;;;;;;5039211;28;20024;-77
2021/11/15 04:23:24;;;;;;;12.80;5.40;;;8.50;99.90;;;;;;5056851;28;20025;-78
2021/11/15 04:25:50;;;;;;;12.75;5.28;;;8.40;99.90;;;;;;5056973;28;20035;-78
2021/11/15 05:12:17;;;;;;;15.85;6.50;;;8.20;99.90;;;;;;5625367;22;20060;-79
2021/11/15 05:14:42;;;;;;;16.50;6.32;;;8.20;99.90;;;;;;5056002;28;20385;-80
2021/11/15 05:17:08;;;;;;;16.52;6.10;;;8.20;99.90;;;;;;5058262;28;20043;-79
2021/11/15 05:19:33;;;;;;;15.18;6.05;;;8.20;99.90;;;;;;5056960;28;20374;-80
2021/11/15 05:21:59;;;;;;;15.07;5.95;;;8.20;99.90;;;;;;5051365;28;20014;-79
2021/11/15 05:24:25;;;;;;;15.90;5.95;;;8.30;99.90;;;;;;5037459;28;20026;-80
2021/11/15 05:26:50;;;;;;;17.67;6.47;;;8.20;99.90;;;;;;5038375;28;20037;-80
2021/11/15 05:29:16;;;;;;;14.32;5.57;;;8.20;99.90;;;;;;5040497;28;20164;-80
2021/11/15 05:31:41;;;;;;;16.98;6.55;;;8.20;99.90;;;;;;5039937;28;20026;-79
2021/11/15 05:34:07;;;;;;;17.13;7.13;;;8.20;99.90;;;;;;5036413;28;20025;-80
2021/11/15 05:36:33;;;;;;;18.33;6.90;;;8.20;99.90;;;;;;5039076;28;20064;-79
2021/11/15 05:38:59;;;;;;;16.85;6.93;;;8.20;99.90;;;;;;5039088;28;20025;-79
2021/11/15 05:41:25;;;;;;;17.80;6.53;;;8.20;99.90;;;;;;5037465;28;20029;-80
2021/11/15 05:43:51;;;;;;;19.20;7.05;;;8.20;99.90;;;;;;5037806;28;20043;-79
2021/11/15 05:46:16;;;;;;;20.80;6.85;;;8.20;99.90;;;;;;5038216;28;20438;-80
2021/11/15 05:48:42;;;;;;;15.57;6.93;;;8.20;99.90;;;;;;5037061;28;20099;-81
2021/11/15 05:51:07;;;;;;;15.70;6.13;;;8.20;99.90;;;;;;5036970;28;20493;-77
2021/11/15 05:53:35;;;;;;;17.42;6.25;;;8.20;99.90;;;;;;5033581;28;20469;-77
2021/11/15 05:56:07;;;;;;;16.77;6.80;;;8.20;99.90;;;;;;5035586;28;20108;-78
2021/11/15 05:58:32;;;;;;;18.40;6.82;;;8.20;99.90;;;;;;5036703;28;20025;-80
2021/11/15 06:00:59;;;;;;;18.35;6.47;;;8.20;99.90;;;;;;5037306;28;20108;-80
2021/11/15 06:03:25;;;;;;;19.77;6.70;;;8.20;99.90;;;;;;5035800;28;20443;-77
2021/11/15 06:05:51;;;;;;;16.92;6.90;;;8.20;99.90;;;;;;5013988;28;20410;-78
2021/11/15 06:08:17;;;;;;;17.02;6.63;;;8.20;99.90;;;;;;5027812;28;20033;-78
2021/11/15 06:10:43;;;;;;;18.63;6.72;;;8.20;99.90;;;;;;5035239;28;20049;-78
2021/11/15 06:13:08;;;;;;;15.52;6.75;;;8.20;99.90;;;;;;5033143;28;20040;-78
2021/11/15 06:15:34;;;;;;;20.02;7.93;;;8.20;99.90;;;;;;5033397;28;20036;-78
2021/11/15 06:17:59;;;;;;;18.83;6.07;;;8.10;99.90;;;;;;5033190;28;20057;-78
2021/11/15 06:20:25;;;;;;;17.38;7.55;;;8.20;99.90;;;;;;5034659;28;20025;-78
2021/11/15 06:22:51;;;;;;;18.02;7.07;;;8.10;99.90;;;;;;5033889;28;20385;-79
2021/11/15 06:25:17;;;;;;;19.55;6.90;;;8.10;99.90;;;;;;5033003;28;20032;-79
2021/11/15 06:27:44;;;;;;;19.70;7.40;;;8.10;99.90;;;;;;5034270;28;20022;-75
2021/11/15 06:30:12;;;;;;;18.85;7.40;;;8.10;99.90;;;;;;5033322;28;20101;-76
2021/11/15 06:32:38;;;;;;;19.60;7.20;;;8.10;99.90;;;;;;5034432;28;20053;-78
2021/11/15 06:35:04;;;;;;;18.65;7.07;;;8.20;99.90;;;;;;5033335;28;20021;-77
2021/11/15 06:37:30;;;;;;;18.63;7.82;;;8.10;99.90;;;;;;5035658;28;20482;-80
2021/11/15 06:39:56;;;;;;;16.75;7.57;;;8.10;99.90;;;;;;5034468;28;20030;-78
2021/11/15 06:42:21;;;;;;;19.65;6.32;;;8.20;99.90;;;;;;5034138;28;20025;-76
2021/11/15 06:44:47;;;;;;;19.10;7.35;;;8.10;99.90;;;;;;5034168;28;20036;-77
2021/11/15 06:47:13;;;;;;;17.33;6.75;;;8.10;99.90;;;;;;5032544;28;20045;-76
2021/11/15 06:49:38;;;;;;;17.85;7.10;;;8.10;99.90;;;;;;5033849;28;20021;-74
2021/11/15 06:52:05;;;;;;;16.80;6.85;;;8.10;99.90;;;;;;5033780;28;20018;-75
2021/11/15 06:54:31;;;;;;;18.88;7.32;;;8.10;99.90;;;;;;5032730;28;20025;-76
2021/11/15 06:56:56;;;;;;;22.05;7.28;;;8.20;99.90;;;;;;5033678;28;20099;-77
2021/11/15 06:59:22;;;;;;;17.45;6.80;;;8.20;99.90;;;;;;5032524;28;20018;-76
2021/11/15 07:01:48;;;;;;;18.23;6.93;;;8.20;99.90;;;;;;5032521;28;20018;-76
2021/11/15 07:04:14;;;;;;;14.93;6.63;;;8.20;99.90;;;;;;5033056;28;20035;-77
2021/11/15 07:06:41;;;;;;;16.63;6.43;;;8.20;99.90;;;;;;5033487;28;20037;-76
2021/11/15 07:09:09;;;;;;;17.52;6.90;;;8.10;99.90;;;;;;5033403;28;20051;-76
2021/11/15 07:11:35;;;;;;;18.33;7.35;;;8.10;99.90;;;;;;5032761;28;20117;-76
2021/11/15 07:14:04;;;;;;;18.73;7.30;;;8.10;99.90;;;;;;5033397;28;20037;-76
2021/11/15 07:16:30;;;;;;;19.35;7.60;;;8.10;99.90;;;;;;5033288;28;20478;-76
2021/11/15 07:18:56;;;;;;;21.30;8.07;;;8.10;99.90;;;;;;5033470;28;20100;-76
2021/11/15 07:21:23;;;;;;;21.67;8.02;;;8.10;99.90;;;;;;5031830;28;20079;-77
2021/11/15 07:23:49;;;;;;;19.52;8.23;;;8.10;99.90;;;;;;5033691;28;20100;-75
2021/11/15 07:26:15;;;;;;;15.68;5.93;;;8.10;99.90;;;;;;5034112;28;20032;-76
2021/11/15 07:28:41;;;;;;;23.38;7.45;;;8.10;99.90;;;;;;5033541;28;20025;-76
2021/11/15 07:31:07;;;;;;;21.60;7.90;;;8.10;99.90;;;;;;5033420;28;20025;-76
2021/11/15 07:33:33;;;;;;;18.60;7.68;;;8.10;99.90;;;;;;5032270;28;20071;-76
2021/11/15 07:35:59;;;;;;;19.77;7.68;;;8.10;99.90;;;;;;5033378;28;20032;-76
2021/11/15 07:38:24;;;;;;;17.50;7.72;;;8.00;99.90;;;;;;5036393;28;20025;-76
2021/11/15 07:40:50;;;;;;;20.40;7.70;;;8.00;99.90;;;;;;5036174;28;20014;-76
2021/11/15 07:43:16;;;;;;;19.27;6.68;;;8.00;99.90;;;;;;5038472;28;20032;-76
2021/11/15 07:45:43;;;;;;;21.75;8.10;;;8.00;99.90;;;;;;5037595;28;20025;-77
2021/11/15 07:48:09;;;;;;;19.55;6.65;;;8.00;99.90;;;;;;5037610;28;20029;-76
2021/11/15 07:50:35;;;;;;;19.65;7.20;;;8.00;99.90;;;;;;5037236;28;20073;-76
2021/11/15 07:53:01;;;;;;;18.95;6.95;;;8.00;99.90;;;;;;5037091;28;20021;-76
2021/11/15 07:55:27;;;;;;;18.75;6.55;;;8.00;99.90;;;;;;5035767;28;20462;-76
2021/11/15 07:57:52;;;;;;;19.90;7.80;;;8.00;99.90;;;;;;5037342;28;20030;-77
2021/11/15 08:00:21;;;;;;;15.90;6.53;;;8.00;99.90;;;;;;5037356;28;20018;-76
2021/11/15 08:02:47;;;;;;;20.05;7.05;;;8.00;99.90;;;;;;5035912;28;20072;-76
2021/11/15 08:05:15;;;;;;;21.30;7.45;;;8.00;99.90;;;;;;5035822;28;20053;-76
2021/11/15 08:07:41;;;;;;;17.23;6.18;;;8.00;99.90;;;;;;5036917;28;20053;-76
2021/11/15 08:10:09;;;;;;;17.33;6.38;;;8.00;99.90;;;;;;5037035;28;20026;-77
2021/11/15 08:12:38;;;;;;;16.60;6.40;;;8.00;99.90;;;;;;5036588;28;20075;-76
2021/11/15 08:15:08;;;;;;;19.67;7.25;;;7.90;99.90;;;;;;5035703;28;20024;-77
2021/11/15 08:17:36;;;;;;;25.60;8.85;;;7.90;99.90;;;;;;5035513;28;20420;-77
2021/11/15 08:20:04;;;;;;;19.48;7.35;;;7.90;99.90;;;;;;5036976;28;20029;-77
2021/11/15 08:22:30;;;;;;;20.17;7.45;;;7.90;99.90;;;;;;5036609;28;20025;-77
2021/11/15 08:25:19;;;;;;;20.23;6.97;;;7.90;99.90;;;;;;5036847;28;20470;-77
2021/11/15 08:27:45;;;;;;;21.45;8.23;;;7.90;99.90;;;;;;5036670;28;20059;-77
2021/11/15 08:30:11;;;;;;;26.48;8.35;;;8.00;99.90;;;;;;5036464;28;20018;-77
2021/11/15 08:32:38;;;;;;;19.20;6.20;;;7.90;99.90;;;;;;5036800;28;20029;-77
2021/11/15 08:35:04;;;;;;;25.65;8.70;;;7.90;99.90;;;;;;5035160;28;20429;-77
2021/11/15 08:37:30;;;;;;;18.33;6.70;;;7.90;99.90;;;;;;5036409;28;20036;-76
2021/11/15 08:39:56;;;;;;;19.73;6.45;;;7.90;99.90;;;;;;5036884;28;20013;-77
2021/11/15 08:42:21;;;;;;;17.05;6.68;;;7.90;99.90;;;;;;5035044;28;20057;-77
2021/11/15 08:44:57;;;;;;;17.17;6.88;;;8.00;99.90;;;;;;5035017;28;20052;-76
2021/11/15 08:47:23;;;;;;;21.45;7.05;;;8.00;99.90;;;;;;5036929;28;20526;-77
2021/11/15 08:49:49;;;;;;;19.15;6.38;;;8.00;99.90;;;;;;5034755;28;20179;-76
2021/11/15 08:52:15;;;;;;;23.42;6.75;;;8.00;99.90;;;;;;5036378;28;20022;-77
2021/11/15 08:54:41;;;;;;;18.85;5.97;;;8.00;99.90;;;;;;5036172;28;20048;-77
2021/11/15 08:57:07;;;;;;;18.45;6.13;;;8.00;99.90;;;;;;5035974;28;20366;-77
2021/11/15 08:59:33;;;;;;;18.83;6.65;;;8.00;99.90;;;;;;5036107;28;20033;-76
2021/11/15 09:02:00;;;;;;;18.98;7.13;;;8.00;99.90;;;;;;5036624;28;20021;-75
2021/11/15 09:04:25;;;;;;;18.40;7.15;;;8.00;99.90;;;;;;5036091;28;20029;-76
2021/11/15 09:06:52;;;;;;;19.58;7.20;;;8.00;99.90;;;;;;5035975;28;20470;-76
2021/11/15 09:09:18;;;;;;;17.33;7.22;;;8.00;99.90;;;;;;5036049;28;20029;-76
2021/11/15 09:11:49;;;;;;;21.70;6.85;;;8.00;99.90;;;;;;5034396;28;20041;-77
2021/11/15 09:14:17;;;;;;;19.23;7.13;;;8.00;99.90;;;;;;5036050;28;20477;-77
2021/11/15 09:16:43;;;;;;;16.48;6.75;;;8.00;99.90;;;;;;5034602;28;20029;-77
2021/11/15 09:19:10;;;;;;;19.45;6.85;;;8.00;99.90;;;;;;5034303;28;20021;-77
2021/11/15 09:21:36;;;;;;;20.65;7.55;;;8.00;99.90;;;;;;5035183;28;20218;-77
2021/11/15 09:24:02;;;;;;;20.55;6.55;;;8.00;99.90;;;;;;5033901;28;20030;-77
2021/11/15 09:26:28;;;;;;;17.45;6.93;;;8.00;99.90;;;;;;5035117;28;20049;-76
2021/11/15 09:28:56;;;;;;;15.07;6.70;;;8.00;99.90;;;;;;5035792;28;20088;-76
2021/11/15 09:31:23;;;;;;;17.67;6.15;;;8.10;99.90;;;;;;5035352;28;20517;-77
2021/11/15 09:33:50;;;;;;;21.17;6.97;;;8.00;99.90;;;;;;5035222;28;20095;-77
2021/11/15 09:36:16;;;;;;;17.08;6.47;;;8.00;99.90;;;;;;5034718;28;20033;-77
2021/11/15 09:38:44;;;;;;;16.25;6.03;;;8.00;99.90;;;;;;5033611;28;20025;-77
2021/11/15 09:41:11;;;;;;;16.13;5.72;;;8.00;99.90;;;;;;5033588;28;20022;-77
2021/11/15 09:43:37;;;;;;;17.83;6.47;;;8.00;99.90;;;;;;5033601;28;20022;-77
2021/11/15 09:46:10;;;;;;;17.67;6.63;;;8.00;99.90;;;;;;5033443;28;20075;-77
2021/11/15 09:48:39;;;;;;;19.05;5.60;;;8.00;99.90;;;;;;5030344;28;20423;-76
2021/11/15 09:51:05;;;;;;;;;;;8.00;99.90;;;;;;5033844;28;20017;-77
2021/11/15 09:53:31;;;;;;;20.55;6.35;;;8.00;99.90;;;;;;5034695;28;19905;-77
2021/11/15 09:55:58;;;;;;;16.13;6.28;;;8.00;99.90;;;;;;5034562;28;20041;-77
2021/11/15 09:58:23;;;;;;;21.45;6.72;;;8.00;99.90;;;;;;5033297;28;20018;-76
2021/11/15 10:00:50;;;;;;;16.83;5.65;;;7.90;99.90;;;;;;5034231;28;20136;-76
2021/11/15 10:03:17;;;;;;;19.73;6.30;;;7.90;99.90;;;;;;5034787;28;20022;-76
2021/11/15 10:05:45;;;;;;;18.27;6.22;;;8.00;99.90;;;;;;5034760;28;20087;-76
2021/11/15 10:08:12;;;;;;;19.48;6.70;;;8.00;99.90;;;;;;5034733;28;20048;-76
2021/11/15 10:10:56;;;;;;;19.58;6.43;;;7.90;99.90;;;;;;5034504;28;20083;-76
2021/11/15 10:13:34;;;;;;;16.33;6.70;;;7.90;99.90;;;;;;5033452;28;20029;-77
2021/11/15 10:16:05;;;;;;;21.45;7.00;;;7.90;99.90;;;;;;5033322;28;20532;-76
2021/11/15 10:18:41;;;;;;;26.83;7.88;;;7.80;99.90;;;;;;5033200;28;20021;-76
2021/11/15 10:21:16;;;;;;;17.40;5.93;;;7.80;99.90;;;;;;5034447;28;20103;-77
2021/11/15 10:24:07;;;;;;;22.80;7.40;;;7.80;99.90;;;;;;5033172;28;20116;-76
2021/11/15 10:26:51;;;;;;;19.30;6.85;;;7.80;99.90;;;;;;5033895;28;20128;-76
2021/11/15 10:29:19;;;;;;;22.45;7.28;;;7.80;99.90;;;;;;5034324;28;20029;-76
2021/11/15 10:32:06;;;;;;;25.38;7.88;;;7.80;99.90;;;;;;5034316;28;20386;-76
2021/11/15 10:34:33;;;;;;;23.00;7.15;;;7.80;99.90;;;;;;5034741;28;20021;-76
2021/11/15 10:37:01;;;;;;;24.15;7.85;;;7.80;99.90;;;;;;5032895;28;20029;-76
2021/11/15 10:39:40;;;;;;;22.05;7.45;;;7.80;99.90;;;;;;5034174;28;20022;-76
2021/11/15 10:42:13;;;;;;;19.25;7.35;;;7.90;99.90;;;;;;5034114;28;20071;-77
2021/11/15 10:45:00;;;;;;;23.10;7.22;;;7.80;99.90;;;;;;5032683;28;20021;-77
2021/11/15 10:47:42;;;;;;;23.30;7.35;;;7.90;99.90;;;;;;5034746;28;20029;-77
2021/11/15 10:50:51;;;;;;;23.10;7.25;;;7.90;99.90;;;;;;5032866;28;20033;-76
2021/11/15 10:53:21;;;;;;;;;;;7.90;99.90;;;;;;5031869;28;20044;-77
2021/11/15 10:56:13;;;;;;;23.00;6.97;;;7.90;99.90;;;;;;5033929;28;19919;-77
2021/11/15 10:58:41;;;;;;;22.40;7.72;;;8.00;99.90;;;;;;5033855;28;20020;-76
2021/11/15 11:01:08;;;;;;;19.75;8.10;;;8.00;99.90;;;;;;5033928;28;20028;-77
2021/11/15 11:03:35;;;;;;;20.52;6.97;;;8.00;99.90;;;;;;5033881;28;20088;-76
2021/11/15 11:06:07;;;;;;;22.08;7.03;;;8.00;99.90;;;;;;5033690;28;20022;-76
2021/11/15 11:08:40;;;;;;;16.63;5.43;;;8.00;99.90;;;;;;5034056;28;20477;-77
2021/11/15 11:11:10;;;;;;;19.40;6.30;;;8.00;99.90;;;;;;5034079;28;20029;-78
2021/11/15 11:13:54;;;;;;;16.10;4.78;;;7.90;99.90;;;;;;5033691;28;20053;-77
2021/11/15 11:16:35;;;;;;;17.33;5.72;;;7.90;99.90;;;;;;5032390;28;20049;-76
2021/11/15 11:24:57;;;;;;;20.92;6.03;;;7.80;99.90;;;;;;5034535;28;20080;-77
2021/11/15 11:27:09;;;;;;;14.63;4.55;;;7.80;99.90;;;;;;5032526;28;20047;-76
2021/11/15 11:29:37;;;;;;;;;;;7.70;99.90;;;;;;5033897;28;20024;-76
2021/11/15 11:32:15;;;;;;;11.68;4.25;;;7.70;99.90;;;;;;5032275;28;19909;-77
2021/11/15 11:34:42;;;;;;;13.38;4.88;;;7.70;99.90;;;;;;5033113;28;20546;-76
2021/11/15 11:37:13;;;;;;;15.20;4.72;;;7.70;99.90;;;;;;5033495;28;20429;-77
2021/11/15 11:39:43;;;;;;;15.35;5.28;;;7.70;99.90;;;;;;5034003;28;20057;-76
2021/11/15 11:42:11;;;;;;;16.98;4.80;;;7.70;99.90;;;;;;5033302;28;20025;-76
2021/11/15 11:44:37;;;;;;;14.10;5.27;;;7.80;99.90;;;;;;5033448;28;20041;-76
2021/11/15 11:47:06;;;;;;;18.17;5.43;;;7.80;99.90;;;;;;5033852;28;20045;-76
2021/11/15 11:49:33;;;;;;;17.08;5.43;;;7.80;99.90;;;;;;5033707;28;20032;-77
2021/11/15 11:52:02;;;;;;;14.88;4.90;;;7.80;99.90;;;;;;5032907;28;20097;-76
2021/11/15 11:54:34;;;;;;;15.02;4.85;;;7.70;99.90;;;;;;5031751;28;20025;-77
2021/11/15 11:57:13;;;;;;;15.65;4.63;;;7.70;99.90;;;;;;5033402;28;20103;-77
2021/11/15 11:59:46;;;;;;;16.58;5.15;;;7.70;99.90;;;;;;5032028;28;20013;-76
2021/11/15 12:02:19;;;;;;;15.60;5.45;;;7.70;99.90;;;;;;5033062;28;20096;-76
2021/11/15 12:04:48;;;;;;;13.70;4.20;;;7.70;99.90;;;;;;5033329;28;20053;-76
2021/11/15 12:07:34;;;;;;;15.85;4.45;;;7.70;99.90;;;;;;5031843;28;20034;-76
2021/11/15 12:10:11;;;;;;;13.88;5.07;;;7.70;99.90;;;;;;5033407;28;20022;-76
2021/11/15 12:12:51;;;;;;;15.02;4.55;;;7.70;99.90;;;;;;5033140;28;20084;-77
2021/11/15 12:15:42;;;;;;;14.00;4.28;;;7.70;99.90;;;;;;5031839;28;20493;-76
2021/11/15 12:18:14;;;;;;;15.10;5.22;;;7.70;99.90;;;;;;5031935;28;20478;-76
2021/11/15 12:21:05;;;;;;;16.52;5.05;;;7.70;99.90;;;;;;5031939;28;20021;-76
2021/11/15 12:23:31;;;;;;;17.90;4.72;;;7.70;99.90;;;;;;5035133;28;20109;-76
2021/11/15 12:26:07;;;;;;;15.63;4.65;;;7.70;99.90;;;;;;5035482;28;20490;-76
2021/11/15 12:28:34;;;;;;;14.65;4.95;;;7.70;99.90;;;;;;5036919;28;20033;-77
2021/11/15 12:31:01;;;;;;;15.00;4.95;;;7.60;99.90;;;;;;5036902;28;20517;-77
2021/11/15 12:33:29;;;;;;;17.80;5.00;;;7.60;99.90;;;;;;5036407;28;20033;-77
2021/11/15 12:36:04;;;;;;;14.57;5.00;;;7.60;99.90;;;;;;5036096;28;20021;-77
2021/11/15 12:38:34;;;;;;;10.38;4.35;;;7.60;99.90;;;;;;5034841;28;20494;-76
2021/11/15 12:41:24;;;;;;;14.52;3.85;;;7.60;99.90;;;;;;5036093;28;20021;-77
2021/11/15 12:43:49;;;;;;;16.08;4.38;;;7.50;99.90;;;;;;5036433;28;20461;-77
2021/11/15 12:46:18;;;;;;;14.65;4.25;;;7.50;99.90;;;;;;5034718;28;20032;-77
2021/11/15 12:48:48;;;;;;;;;;;7.50;99.90;;;;;;5036822;28;20029;-77
2021/11/15 12:51:23;;;;;;;13.80;3.65;;;7.50;99.90;;;;;;5036339;28;19958;-77
2021/11/15 12:53:51;;;;;;;13.38;3.92;;;7.50;99.90;;;;;;5035758;28;20033;-77
2021/11/15 12:56:28;;;;;;;15.55;3.45;;;7.50;99.90;;;;;;5036061;28;20112;-77
2021/11/15 12:58:55;;;;;;;9.10;3.03;;;7.50;99.90;;;;;;5036820;28;20497;-77
2021/11/15 13:01:22;;;;;;;12.07;3.42;;;7.40;99.90;;;;;;5034772;28;20425;-77
2021/11/15 13:03:52;;;;;;;9.13;2.78;;;7.40;99.90;;;;;;5034895;28;20021;-77
2021/11/15 13:06:22;;;;;;;12.57;2.67;;;7.40;99.90;;;;;;5035853;28;20033;-77
2021/11/15 13:08:49;;;;;;;10.02;2.83;;;7.40;99.90;;;;;;5035915;28;20018;-77
2021/11/15 13:11:16;;;;;;;10.50;3.42;;;7.50;99.90;;;;;;5035592;28;20473;-76
2021/11/15 13:13:42;;;;;;;8.52;2.13;;;7.40;99.90;;;;;;5035865;28;20478;-77
2021/11/15 13:16:09;;;;;;;12.38;2.83;;;7.40;99.90;;;;;;5035743;28;20036;-77
2021/11/15 13:18:35;;;;;;;8.75;2.58;;;7.40;99.90;;;;;;5035606;28;20428;-77
2021/11/15 13:21:03;;;;;;;10.77;2.70;;;7.40;99.90;;;;;;5035699;28;20524;-77
2021/11/15 13:23:30;;;;;;;7.88;2.22;;;7.40;99.90;;;;;;5034383;28;20034;-77
2021/11/15 13:25:57;;;;;;;8.50;2.20;;;7.30;99.90;;;;;;5035911;28;20025;-76
2021/11/15 13:28:23;;;;;;;9.88;2.75;;;7.30;99.90;;;;;;5034285;28;20108;-77
2021/11/15 13:30:50;;;;;;;10.63;3.22;;;7.30;99.90;;;;;;5035625;28;20064;-77
2021/11/15 13:33:15;;;;;;;12.23;3.35;;;7.30;99.90;;;;;;5035442;28;20553;-78
2021/11/15 13:35:41;;;;;;;14.35;3.67;;;7.30;99.90;;;;;;5033064;28;20057;-77
2021/11/15 13:38:06;;;;;;;12.07;3.25;;;7.30;99.90;;;;;;5035443;28;20021;-76
2021/11/15 13:40:41;;;;;;;11.48;3.28;;;7.30;99.90;;;;;;5035425;28;20029;-76
2021/11/15 13:43:07;;;;;;;13.75;4.30;;;7.30;99.90;;;;;;5035194;28;20451;-76